createdAt,value
2022-12-05T00:01:36.674Z,100744.97
2022-12-05T00:04:07.906Z,100738.78
2022-12-05T00:06:36.847Z,100732.72
2022-12-05T00:09:05.876Z,100735.25
2022-12-05T00:11:36.748Z,100735.44
2022-12-05T00:14:07.382Z,100735.91
2022-12-05T00:16:36.754Z,100739.34
2022-12-05T00:19:05.854Z,100736.75
2022-12-05T00:21:35.910Z,100739.25
2022-12-05T00:24:06.110Z,100745.53
2022-12-05T00:26:34.959Z,100742.91
2022-12-05T00:29:02.815Z,100738.97
2022-12-05T00:31:32.320Z,100742.53
2022-12-05T00:34:02.045Z,100741.31
2022-12-05T00:36:31.521Z,100749.47
2022-12-05T00:39:00.957Z,100745.16
2022-12-05T00:41:29.880Z,100750.31
2022-12-05T00:44:00.292Z,100734.16
2022-12-05T00:46:30.195Z,100749.28
2022-12-05T00:49:00.663Z,100748.63
2022-12-05T00:51:30.416Z,100727.22
2022-12-05T00:53:59.809Z,100738.03
2022-12-05T00:56:29.314Z,100734.78
2022-12-05T00:58:59.128Z,100744.88
2022-12-05T01:01:30.220Z,100743.19
2022-12-05T01:04:04.951Z,100742.63
2022-12-05T01:06:32.846Z,100740.66
2022-12-05T01:09:01.075Z,100738.13
2022-12-05T01:11:29.692Z,100734.16
2022-12-05T01:13:58.321Z,100743.38
2022-12-05T01:16:28.147Z,100744.41
2022-12-05T01:18:56.779Z,100749.47
2022-12-05T01:21:26.606Z,100739.47
2022-12-05T01:23:54.304Z,100756.38
2022-12-05T01:26:23.376Z,100752.75
2022-12-05T01:28:52.531Z,100742.72
2022-12-05T01:31:24.137Z,100750.13
2022-12-05T01:33:52.659Z,100758.25
2022-12-05T01:36:22.591Z,100756.56
2022-12-05T01:38:52.060Z,100760.78
2022-12-05T01:41:22.392Z,100759.00
2022-12-05T01:44:02.463Z,100763.22
2022-12-05T01:46:32.427Z,100765.00
2022-12-05T01:49:06.482Z,100758.91
2022-12-05T01:51:37.165Z,100756.38
2022-12-05T01:54:07.857Z,100752.84
2022-12-05T01:56:36.843Z,100768.28
2022-12-05T01:59:08.100Z,100769.13
2022-12-05T02:01:36.561Z,100769.03
2022-12-05T02:04:05.568Z,100769.03
2022-12-05T02:06:33.652Z,100768.38
2022-12-05T02:09:01.631Z,100768.28
2022-12-05T02:11:34.385Z,100768.38
2022-12-05T02:14:24.101Z,100768.38
2022-12-05T02:17:03.344Z,100765.00
2022-12-05T02:19:48.891Z,100760.13
2022-12-05T02:22:41.894Z,100770.41
2022-12-05T02:25:40.477Z,100764.16
2022-12-05T02:28:36.818Z,100772.00
2022-12-05T02:31:11.500Z,100763.31
2022-12-05T02:33:45.244Z,100767.72
2022-12-05T02:36:19.074Z,100760.97
2022-12-05T02:38:55.128Z,100756.66
2022-12-05T02:41:28.835Z,100772.50
2022-12-05T02:44:00.540Z,100764.84
2022-12-05T02:46:32.457Z,100765.84
2022-12-05T02:49:03.614Z,100770.16
2022-12-05T02:51:36.701Z,100764.09
2022-12-05T02:54:09.124Z,100769.59
2022-12-05T02:56:38.212Z,100768.66
2022-12-05T02:59:06.015Z,100765.47
2022-12-05T03:01:35.196Z,100776.78
2022-12-05T03:04:05.966Z,100775.00
2022-12-05T03:06:37.929Z,100775.69
2022-12-05T03:09:10.977Z,100775.00
2022-12-05T03:11:43.154Z,100783.72
2022-12-05T03:14:15.773Z,100795.69
2022-12-05T03:16:50.219Z,100799.44
2022-12-05T03:19:22.321Z,100795.88
2022-12-05T03:21:56.082Z,100792.63
2022-12-05T03:24:24.372Z,100798.69
2022-12-05T03:26:58.772Z,100795.25
2022-12-05T03:29:32.652Z,100806.75
2022-12-05T03:32:09.542Z,100798.97
2022-12-05T03:34:50.990Z,100806.84
2022-12-05T03:37:27.453Z,100800.00
2022-12-05T03:40:07.552Z,100808.63
2022-12-05T03:42:39.687Z,100801.78
2022-12-05T03:45:12.195Z,100795.78
2022-12-05T03:47:49.303Z,100793.25
2022-12-05T03:50:22.458Z,100794.94
2022-12-05T03:53:19.250Z,100799.34
2022-12-05T03:55:47.015Z,100796.06
2022-12-05T03:58:20.309Z,100796.91
2022-12-05T04:00:53.010Z,100796.34
2022-12-05T04:03:38.948Z,100787.34
2022-12-05T04:06:13.185Z,100796.44
2022-12-05T04:08:46.190Z,100797.28
2022-12-05T04:11:18.073Z,100802.44
2022-12-05T04:13:49.114Z,100802.22
2022-12-05T04:16:38.360Z,100807.66
2022-12-05T04:19:13.210Z,100809.16
2022-12-05T04:21:44.042Z,100811.69
2022-12-05T04:24:32.728Z,100811.03
2022-12-05T04:27:09.546Z,100815.91
2022-12-05T04:29:43.529Z,100816.06
2022-12-05T04:32:14.385Z,100825.91
2022-12-05T04:34:50.729Z,100818.06
2022-12-05T04:37:23.759Z,100810.56
2022-12-05T04:39:58.942Z,100825.41
2022-12-05T04:42:29.872Z,100825.06
2022-12-05T04:45:04.361Z,100820.66
2022-12-05T04:47:37.043Z,100824.84
2022-12-05T04:50:08.885Z,100817.75
2022-12-05T04:52:37.784Z,100817.66
2022-12-05T04:55:09.921Z,100821.03
2022-12-05T04:57:44.417Z,100816.56
2022-12-05T05:00:12.799Z,100829.75
2022-12-05T05:02:45.966Z,100812.69
2022-12-05T05:05:18.909Z,100823.00
2022-12-05T05:07:48.077Z,100823.38
2022-12-05T05:10:18.738Z,100817.81
2022-12-05T05:12:46.637Z,100830.66
2022-12-05T05:15:14.354Z,100822.03
2022-12-05T05:17:42.091Z,100832.34
2022-12-05T05:20:25.165Z,100833.38
2022-12-05T05:22:55.304Z,100839.44
2022-12-05T05:25:23.186Z,100834.22
2022-12-05T05:27:52.093Z,100831.22
2022-12-05T05:30:20.443Z,100843.00
2022-12-05T05:32:48.238Z,100841.22
2022-12-05T05:35:16.883Z,100835.88
2022-12-05T05:37:44.976Z,100845.69
2022-12-05T05:40:15.191Z,100838.84
2022-12-05T05:42:44.266Z,100842.31
2022-12-05T05:45:13.274Z,100846.53
2022-12-05T05:47:41.286Z,100854.47
2022-12-05T05:50:10.121Z,100856.84
2022-12-05T05:52:39.022Z,100846.38
2022-12-05T05:55:08.749Z,100855.81
2022-12-05T05:57:37.916Z,100836.44
2022-12-05T06:00:07.866Z,100847.22
2022-12-05T06:02:36.364Z,100840.28
2022-12-05T06:05:05.138Z,100849.91
2022-12-05T06:07:33.033Z,100853.47
2022-12-05T06:10:01.253Z,100859.63
2022-12-05T06:12:29.245Z,100861.31
2022-12-05T06:14:58.328Z,100868.31
2022-12-05T06:17:26.254Z,100864.31
2022-12-05T06:19:53.963Z,100868.03
2022-12-05T06:22:21.653Z,100859.25
2022-12-05T06:24:49.390Z,100860.00
2022-12-05T06:27:17.153Z,100861.97
2022-12-05T06:29:44.892Z,100864.50
2022-12-05T06:32:13.953Z,100870.47
2022-12-05T06:34:41.927Z,100863.94
2022-12-05T06:37:09.803Z,100850.34
2022-12-05T06:39:38.505Z,100875.44
2022-12-05T06:42:06.424Z,100873.97
2022-12-05T06:44:34.184Z,100876.66
2022-12-05T06:47:01.866Z,100877.41
2022-12-05T06:49:36.403Z,100874.97
2022-12-05T06:52:05.939Z,100874.97
2022-12-05T06:54:33.785Z,100888.91
2022-12-05T06:57:01.568Z,100882.16
2022-12-05T06:59:29.308Z,100885.31
2022-12-05T07:01:56.127Z,100888.09
2022-12-05T07:04:25.015Z,100861.25
2022-12-05T07:06:55.853Z,100893.16
2022-12-05T07:09:45.604Z,100891.84
2022-12-05T07:12:13.938Z,100894.63
2022-12-05T07:14:50.104Z,100905.03
2022-12-05T07:17:18.351Z,100902.25
2022-12-05T07:19:47.813Z,100900.72
2022-12-05T07:22:17.283Z,100901.72
2022-12-05T07:24:45.417Z,100910.41
2022-12-05T07:27:13.838Z,100920.72
2022-12-05T07:29:41.824Z,100916.34
2022-12-05T07:32:09.713Z,100918.88
2022-12-05T07:34:38.774Z,100921.41
2022-12-05T07:37:06.818Z,100919.88
2022-12-05T07:39:36.013Z,100929.88
2022-12-05T07:42:03.719Z,100925.97
2022-12-05T07:44:31.476Z,100929.50
2022-12-05T07:46:59.554Z,100933.41
2022-12-05T07:49:27.465Z,100933.56
2022-12-05T07:51:55.186Z,100931.97
2022-12-05T07:54:23.162Z,100936.72
2022-12-05T07:56:52.199Z,100943.34
2022-12-05T07:59:20.122Z,100946.91
2022-12-05T08:01:47.968Z,100939.81
2022-12-05T08:04:16.187Z,100943.78
2022-12-05T08:06:44.556Z,100943.78
2022-12-05T08:09:12.472Z,100950.88
2022-12-05T08:11:40.224Z,100945.56
2022-12-05T08:14:09.371Z,100945.28
2022-12-05T08:16:37.467Z,100947.25
2022-12-05T08:19:07.515Z,100948.94
2022-12-05T08:21:35.868Z,100955.75
2022-12-05T08:24:05.834Z,100948.09
2022-12-05T08:26:34.801Z,100955.19
2022-12-05T08:29:05.353Z,100959.41
2022-12-05T08:31:37.509Z,100968.19
2022-12-05T08:34:05.808Z,100973.41
2022-12-05T08:36:33.796Z,100974.28
2022-12-05T08:39:06.309Z,100983.81
2022-12-05T08:41:35.337Z,100978.28
2022-12-05T08:44:05.802Z,100993.84
2022-12-05T08:46:37.507Z,100989.38
2022-12-05T08:49:06.418Z,100990.44
2022-12-05T08:51:34.166Z,101007.06
2022-12-05T08:54:03.198Z,101007.75
2022-12-05T08:56:30.966Z,100999.84
2022-12-05T08:59:04.802Z,101006.00
2022-12-05T09:01:38.363Z,100997.38
2022-12-05T09:04:07.163Z,100990.28
2022-12-05T09:06:35.967Z,100985.97
2022-12-05T09:09:06.724Z,100977.72
2022-12-05T09:11:36.215Z,100993.84
2022-12-05T09:14:05.109Z,101000.69
2022-12-05T09:16:38.475Z,101003.22
2022-12-05T09:19:14.028Z,101009.38
2022-12-05T09:21:42.360Z,101009.53
2022-12-05T09:24:12.248Z,100989.44
2022-12-05T09:26:40.899Z,101007.16
2022-12-05T09:29:14.140Z,101007.84
2022-12-05T09:31:45.407Z,101009.38
2022-12-05T09:34:14.904Z,101013.59
2022-12-05T09:36:43.022Z,101005.66
2022-12-05T09:39:11.429Z,101008.28
2022-12-05T09:42:08.202Z,101005.38
2022-12-05T09:45:10.114Z,101004.53
2022-12-05T09:47:56.291Z,100981.84
2022-12-05T09:50:25.607Z,101012.59
2022-12-05T09:53:03.410Z,101002.84
2022-12-05T09:55:42.924Z,101001.16
2022-12-05T09:58:21.830Z,101002.78
2022-12-05T10:00:52.454Z,101005.31
2022-12-05T10:03:27.076Z,100999.59
2022-12-05T10:06:06.915Z,101005.16
2022-12-05T10:08:44.070Z,101000.75
2022-12-05T10:11:19.032Z,101001.78
2022-12-05T10:13:55.779Z,100999.91
2022-12-05T10:16:32.338Z,100996.53
2022-12-05T10:19:06.672Z,100985.06
2022-12-05T10:21:38.925Z,101008.53
2022-12-05T10:24:15.286Z,101003.97
2022-12-05T10:26:46.653Z,101003.63
2022-12-05T10:29:24.818Z,101013.94
2022-12-05T10:31:57.518Z,101011.31
2022-12-05T10:34:32.842Z,101009.38
2022-12-05T10:37:09.248Z,101028.09
2022-12-05T10:39:37.235Z,101027.94
2022-12-05T10:42:05.859Z,101016.53
2022-12-05T10:44:35.018Z,101013.75
2022-12-05T10:47:02.865Z,101016.22
2022-12-05T10:49:33.745Z,101012.47
2022-12-05T10:52:01.697Z,101014.09
2022-12-05T10:54:31.472Z,101015.69
2022-12-05T10:56:59.508Z,100989.44
2022-12-05T10:59:44.731Z,100988.34
2022-12-05T11:02:23.295Z,101011.09
2022-12-05T11:04:53.573Z,100993.44
2022-12-05T11:07:33.596Z,101004.16
2022-12-05T11:10:03.370Z,101003.91
2022-12-05T11:12:38.302Z,101003.22
2022-12-05T11:15:21.625Z,101006.03
2022-12-05T11:17:51.450Z,101006.69
2022-12-05T11:20:36.971Z,101004.84
2022-12-05T11:23:22.592Z,101002.78
2022-12-05T11:25:50.664Z,101006.50
2022-12-05T11:28:39.699Z,101014.94
2022-12-05T11:31:20.740Z,101010.47
2022-12-05T11:34:03.449Z,101009.00
2022-12-05T11:36:39.375Z,101006.69
2022-12-05T11:39:07.221Z,101006.50
2022-12-05T11:41:56.274Z,101003.91
2022-12-05T11:44:47.543Z,101008.00
2022-12-05T11:47:29.817Z,101000.78
2022-12-05T11:50:24.928Z,101003.41
2022-12-05T11:53:08.011Z,101005.19
2022-12-05T11:55:43.141Z,100994.84
2022-12-05T11:58:34.812Z,101001.09
2022-12-05T12:01:13.392Z,100992.66
2022-12-05T12:04:03.714Z,100992.47
2022-12-05T12:06:35.272Z,100999.38
2022-12-05T12:09:30.976Z,100994.84
2022-12-05T12:12:03.699Z,101000.31
2022-12-05T12:14:38.399Z,100996.03
2022-12-05T12:17:16.304Z,100998.66
2022-12-05T12:20:02.439Z,101002.94
2022-12-05T12:23:02.097Z,101006.41
2022-12-05T12:25:42.555Z,101003.78
2022-12-05T12:28:29.252Z,100999.38
2022-12-05T12:31:16.362Z,100995.84
2022-12-05T12:33:52.089Z,100998.53
2022-12-05T12:36:27.333Z,101004.63
2022-12-05T12:39:15.692Z,101000.59
2022-12-05T12:41:57.447Z,100993.50
2022-12-05T12:44:49.548Z,101000.06
2022-12-05T12:47:24.537Z,100996.53
2022-12-05T12:50:04.609Z,101000.25
2022-12-05T12:52:44.319Z,100988.44
2022-12-05T12:55:22.980Z,100988.84
2022-12-05T12:58:05.878Z,100988.00
2022-12-05T13:00:47.341Z,100993.50
2022-12-05T13:03:20.849Z,100987.06
2022-12-05T13:05:51.152Z,100989.97
2022-12-05T13:08:27.522Z,100993.50
2022-12-05T13:10:56.783Z,100994.53
2022-12-05T13:13:33.584Z,100979.22
2022-12-05T13:16:03.215Z,100984.91
2022-12-05T13:18:31.044Z,100990.22
2022-12-05T13:21:00.551Z,100976.59
2022-12-05T13:23:30.634Z,100984.91
2022-12-05T13:26:01.322Z,100988.44
2022-12-05T13:28:32.609Z,100993.06
2022-12-05T13:31:04.749Z,100997.75
2022-12-05T13:33:36.395Z,101002.59
2022-12-05T13:36:28.168Z,100992.91
2022-12-05T13:39:22.258Z,100991.91
2022-12-05T13:42:10.933Z,100984.22
2022-12-05T13:44:43.405Z,100996.44
2022-12-05T13:47:25.962Z,100993.66
2022-12-05T13:49:57.903Z,100995.69
2022-12-05T13:52:30.057Z,101007.84
2022-12-05T13:55:01.871Z,101016.63
2022-12-05T13:58:03.926Z,101010.81
2022-12-05T14:00:37.011Z,101022.84
2022-12-05T14:03:07.457Z,101008.34
2022-12-05T14:05:44.079Z,101012.13
2022-12-05T14:08:48.708Z,101011.13
2022-12-05T14:11:18.117Z,100987.50
2022-12-05T14:13:46.842Z,101004.28
2022-12-05T14:16:52.622Z,101008.75
2022-12-05T14:20:00.056Z,101004.09
2022-12-05T14:22:54.469Z,101016.75
2022-12-05T14:25:51.668Z,101017.59
2022-12-05T14:28:39.749Z,101013.91
2022-12-05T14:31:27.236Z,101013.91
2022-12-05T14:34:18.918Z,101019.13
2022-12-05T14:36:58.933Z,101019.13
2022-12-05T14:39:38.379Z,101012.06
2022-12-05T14:42:21.140Z,101021.44
2022-12-05T14:44:50.640Z,101028.50
2022-12-05T14:47:23.041Z,101011.72
2022-12-05T14:50:02.228Z,101014.50
2022-12-05T14:52:34.247Z,101019.13
2022-12-05T14:55:09.528Z,101029.75
2022-12-05T14:57:44.408Z,101022.25
2022-12-05T15:00:21.292Z,101018.94
2022-12-05T15:02:51.754Z,101028.41
2022-12-05T15:05:25.229Z,101029.41
2022-12-05T15:07:54.531Z,101032.72
2022-12-05T15:10:24.916Z,101033.56
2022-12-05T15:12:58.205Z,101033.63
2022-12-05T15:15:36.117Z,101041.66
2022-12-05T15:18:15.270Z,101039.94
2022-12-05T15:20:51.201Z,101043.34
2022-12-05T15:23:41.635Z,101038.19
2022-12-05T15:26:48.328Z,101043.72
2022-12-05T15:29:12.141Z,101044.56
2022-12-05T15:31:46.939Z,101044.75
2022-12-05T15:34:19.992Z,101049.13
2022-12-05T15:36:53.093Z,101049.78
2022-12-05T15:39:25.854Z,101048.22
2022-12-05T15:41:54.489Z,101049.97
2022-12-05T15:44:27.253Z,101052.75
2022-12-05T15:46:58.673Z,101051.69
2022-12-05T15:49:27.978Z,101053.53
2022-12-05T15:52:15.505Z,101053.97
2022-12-05T15:54:44.355Z,101058.69
2022-12-05T15:57:19.031Z,101060.91
2022-12-05T15:59:49.131Z,101064.59
2022-12-05T16:02:22.875Z,101061.06
2022-12-05T16:04:54.065Z,101063.94
2022-12-05T16:07:27.037Z,101066.47
2022-12-05T16:09:59.110Z,101065.53
2022-12-05T16:12:32.163Z,101069.69
2022-12-05T16:15:06.049Z,101065.91
2022-12-05T16:17:41.354Z,101062.53
2022-12-05T16:20:21.922Z,101069.22
2022-12-05T16:22:52.780Z,101069.38
2022-12-05T16:25:24.981Z,101075.38
2022-12-05T16:28:00.626Z,101073.69
2022-12-05T16:30:29.034Z,101075.38
2022-12-05T16:33:02.856Z,101078.22
2022-12-05T16:35:36.389Z,101078.28
2022-12-05T16:38:13.326Z,101079.63
2022-12-05T16:40:43.303Z,101083.16
2022-12-05T16:43:21.387Z,101090.84
2022-12-05T16:45:50.572Z,101090.00
2022-12-05T16:48:22.137Z,101090.16
2022-12-05T16:50:52.147Z,101089.38
2022-12-05T16:53:28.208Z,101093.75
2022-12-05T16:55:56.851Z,101089.66
2022-12-05T16:58:26.803Z,101097.06
2022-12-05T17:01:01.915Z,101097.28
2022-12-05T17:03:36.775Z,101096.50
2022-12-05T17:06:05.084Z,101091.44
2022-12-05T17:08:34.283Z,101087.75
2022-12-05T17:11:03.729Z,101093.06
2022-12-05T17:13:32.790Z,101095.66
2022-12-05T17:16:00.755Z,101088.44
2022-12-05T17:18:31.832Z,101100.13
2022-12-05T17:21:02.409Z,101101.22
2022-12-05T17:23:30.161Z,101107.22
2022-12-05T17:26:00.239Z,101100.28
2022-12-05T17:28:28.040Z,101108.13
2022-12-05T17:30:55.888Z,101110.13
2022-12-05T17:33:23.816Z,101097.81
2022-12-05T17:35:52.216Z,101104.75
2022-12-05T17:38:19.944Z,101097.97
2022-12-05T17:40:47.897Z,101103.91
2022-12-05T17:43:22.987Z,101097.81
2022-12-05T17:45:54.006Z,101112.09
2022-12-05T17:48:22.285Z,101111.94
2022-12-05T17:50:50.526Z,101109.97
2022-12-05T17:53:20.880Z,101107.28
2022-12-05T17:55:48.888Z,101109.66
2022-12-05T17:58:18.699Z,101102.91
2022-12-05T18:00:48.328Z,101114.22
2022-12-05T18:03:17.949Z,101110.13
2022-12-05T18:05:47.034Z,101113.66
2022-12-05T18:08:16.578Z,101112.81
2022-12-05T18:10:45.505Z,101122.03
2022-12-05T18:13:13.922Z,101103.50
2022-12-05T18:15:43.497Z,101124.47
2022-12-05T18:18:15.969Z,101116.50
2022-12-05T18:20:43.805Z,101114.88
2022-12-05T18:23:11.910Z,101112.34
2022-12-05T18:25:39.670Z,101116.50
2022-12-05T18:28:07.542Z,101119.03
2022-12-05T18:30:35.511Z,101122.88
2022-12-05T18:33:04.786Z,101118.41
2022-12-05T18:35:41.494Z,101124.41
2022-12-05T18:38:10.949Z,101119.09
2022-12-05T18:40:38.756Z,101126.59
2022-12-05T18:43:06.520Z,101134.44
2022-12-05T18:45:34.399Z,101133.66
2022-12-05T18:48:23.346Z,101132.81
2022-12-05T18:50:51.410Z,101132.72
2022-12-05T18:53:19.370Z,101138.41
2022-12-05T18:58:34.893Z,101126.97
2022-12-05T19:01:08.248Z,101139.97
2022-12-05T19:03:37.642Z,101132.03
2022-12-05T19:06:14.204Z,101132.03
2022-12-05T19:08:42.739Z,101136.56
2022-12-05T19:11:10.525Z,101135.66
2022-12-05T19:13:38.314Z,101134.94
2022-12-05T19:16:08.096Z,101139.25
2022-12-05T19:18:36.561Z,101141.94
2022-12-05T19:21:04.714Z,101143.88
2022-12-05T19:23:35.080Z,101145.53
2022-12-05T19:26:04.343Z,101138.72
2022-12-05T19:28:33.603Z,101149.78
2022-12-05T19:31:02.059Z,101150.56
2022-12-05T19:33:33.936Z,101155.63
2022-12-05T19:36:06.774Z,101158.31
2022-12-05T19:38:36.697Z,101159.09
2022-12-05T19:41:05.629Z,101166.25
2022-12-05T19:43:34.798Z,101149.34
2022-12-05T19:46:04.414Z,101165.47
2022-12-05T19:48:33.430Z,101162.56
2022-12-05T19:51:02.858Z,101171.47
2022-12-05T19:53:32.068Z,101164.53
2022-12-05T19:56:06.127Z,101166.25
2022-12-05T19:58:35.931Z,101150.31
2022-12-05T20:01:11.860Z,101158.94
2022-12-05T20:03:41.875Z,101146.22
2022-12-05T20:06:12.009Z,101151.63
2022-12-05T20:08:40.620Z,101153.06
2022-12-05T20:11:12.589Z,101147.63
2022-12-05T20:13:48.987Z,101152.88
2022-12-05T20:16:19.266Z,101144.09
2022-12-05T20:18:47.350Z,101150.03
2022-12-05T20:21:16.676Z,101155.25
2022-12-05T20:23:44.556Z,101152.66
2022-12-05T20:26:15.409Z,101146.56
2022-12-05T20:28:43.882Z,101155.09
2022-12-05T20:31:13.819Z,101122.63
2022-12-05T20:33:42.014Z,101152.31
2022-12-05T20:36:12.378Z,101161.94
2022-12-05T20:38:40.566Z,101158.25
2022-12-05T20:41:11.061Z,101155.84
2022-12-05T20:43:40.229Z,101157.69
2022-12-05T20:46:10.056Z,101155.84
2022-12-05T20:48:37.946Z,101155.94
2022-12-05T20:51:07.073Z,101153.25
2022-12-05T20:53:35.950Z,101145.34
2022-12-05T20:56:06.019Z,101149.63
2022-12-05T20:58:33.796Z,101155.63
2022-12-05T21:01:04.932Z,101146.72
2022-12-05T21:03:32.734Z,101152.09
2022-12-05T21:06:00.820Z,101152.25
2022-12-05T21:08:28.546Z,101139.03
2022-12-05T21:10:56.225Z,101152.25
2022-12-05T21:13:23.967Z,101148.00
2022-12-05T21:15:51.680Z,101153.09
2022-12-05T21:18:20.826Z,101150.25
2022-12-05T21:20:56.897Z,101148.56
2022-12-05T21:23:24.649Z,101151.97
2022-12-05T21:25:52.519Z,101147.72
2022-12-05T21:28:20.421Z,101153.09
2022-12-05T21:30:48.435Z,101147.78
2022-12-05T21:33:16.230Z,101148.56
2022-12-05T21:35:54.728Z,101149.56
2022-12-05T21:38:22.594Z,101139.88
2022-12-05T21:40:50.263Z,101141.50
2022-12-05T21:43:18.064Z,101140.59
2022-12-05T21:45:50.231Z,101138.88
2022-12-05T21:48:20.917Z,101147.66
2022-12-05T21:50:50.360Z,101142.66
2022-12-05T21:53:18.334Z,101143.50
2022-12-05T21:55:46.283Z,101140.72
2022-12-05T21:58:14.327Z,101136.13
2022-12-05T22:00:43.042Z,101147.25
2022-12-05T22:03:14.915Z,101132.56
2022-12-05T22:05:43.503Z,101141.34
2022-12-05T22:08:13.198Z,101143.19
2022-12-05T22:10:40.970Z,101148.44
2022-12-05T22:13:08.778Z,101147.50
2022-12-05T22:15:36.544Z,101148.34
2022-12-05T22:18:04.465Z,101145.19
2022-12-05T22:20:32.271Z,101142.56
2022-12-05T22:22:59.965Z,101144.41
2022-12-05T22:25:29.085Z,101139.03
2022-12-05T22:27:56.785Z,101139.81
2022-12-05T22:30:24.793Z,101141.56
2022-12-05T22:32:54.370Z,101142.56
2022-12-05T22:35:22.147Z,101146.72
2022-12-05T22:37:49.952Z,101137.78
2022-12-05T22:40:17.892Z,101139.41
2022-12-05T22:42:46.941Z,101141.03
2022-12-05T22:45:14.784Z,101134.88
2022-12-05T22:47:42.540Z,101140.41
2022-12-05T22:50:10.947Z,101135.66
2022-12-05T22:52:38.732Z,101138.41
2022-12-05T22:55:07.133Z,101136.56
2022-12-05T22:57:34.859Z,101144.56
2022-12-05T23:00:04.743Z,101140.03
2022-12-05T23:02:32.530Z,101140.94
2022-12-05T23:05:00.229Z,101135.81
2022-12-05T23:07:28.044Z,101140.88
2022-12-05T23:09:55.769Z,101134.81
2022-12-05T23:12:23.538Z,101129.66
2022-12-05T23:14:51.245Z,101119.97
2022-12-05T23:17:20.340Z,101128.25
2022-12-05T23:19:48.067Z,101123.94
2022-12-05T23:22:15.909Z,101114.72
2022-12-05T23:24:43.617Z,101116.94
2022-12-05T23:27:11.565Z,101113.31
2022-12-05T23:29:39.294Z,101117.63
2022-12-05T23:32:07.052Z,101119.19
2022-12-05T23:34:36.125Z,101112.41
2022-12-05T23:37:03.881Z,101113.47
2022-12-05T23:39:31.703Z,101107.19
2022-12-05T23:41:59.491Z,101104.47
2022-12-05T23:44:27.251Z,101109.03
2022-12-05T23:46:56.031Z,101095.19
2022-12-05T23:49:23.805Z,101094.44
2022-12-05T23:51:53.276Z,101101.78
2022-12-05T23:54:21.041Z,101101.09
2022-12-05T23:56:48.779Z,101107.78
2022-12-05T23:59:16.528Z,101099.94
